sensor_id;sensor_type;location;lat;lon;timestamp;temperature;humidity
25128;DHT22;13107;51.304;6.866;2022-11-25T00:00:39;7.70;99.90
25128;DHT22;13107;51.304;6.866;2022-11-25T00:04:41;7.70;99.90
25128;DHT22;13107;51.304;6.866;2022-11-25T00:08:44;7.70;99.90
25128;DHT22;13107;51.304;6.866;2022-11-25T00:12:46;7.80;99.90
25128;DHT22;13107;51.304;6.866;2022-11-25T00:16:48;7.70;99.90
25128;DHT22;13107;51.304;6.866;2022-11-25T00:20:49;7.80;99.90
25128;DHT22;13107;51.304;6.866;2022-11-25T00:24:51;7.80;99.90
25128;DHT22;13107;51.304;6.866;2022-11-25T00:28:53;7.80;99.90
25128;DHT22;13107;51.304;6.866;2022-11-25T00:32:55;7.90;99.90
25128;DHT22;13107;51.304;6.866;2022-11-25T00:36:57;7.90;99.90
25128;DHT22;13107;51.304;6.866;2022-11-25T00:40:59;7.90;99.90
25128;DHT22;13107;51.304;6.866;2022-11-25T00:45:19;7.90;99.90
25128;DHT22;13107;51.304;6.866;2022-11-25T00:49:21;7.90;99.90
25128;DHT22;13107;51.304;6.866;2022-11-25T00:53:22;8.00;99.90
25128;DHT22;13107;51.304;6.866;2022-11-25T00:57:25;8.00;99.90
25128;DHT22;13107;51.304;6.866;2022-11-25T01:01:27;8.00;99.90
25128;DHT22;13107;51.304;6.866;2022-11-25T01:05:29;8.00;99.90
25128;DHT22;13107;51.304;6.866;2022-11-25T01:09:31;8.00;99.90
25128;DHT22;13107;51.304;6.866;2022-11-25T01:13:33;8.00;99.90
25128;DHT22;13107;51.304;6.866;2022-11-25T01:17:34;7.90;99.90
25128;DHT22;13107;51.304;6.866;2022-11-25T01:21:36;7.90;99.90
25128;DHT22;13107;51.304;6.866;2022-11-25T01:25:38;7.90;99.90
25128;DHT22;13107;51.304;6.866;2022-11-25T01:29:40;7.90;99.90
25128;DHT22;13107;51.304;6.866;2022-11-25T01:33:44;8.00;99.90
25128;DHT22;13107;51.304;6.866;2022-11-25T01:37:45;8.00;99.90
25128;DHT22;13107;51.304;6.866;2022-11-25T01:41:47;8.10;99.90
25128;DHT22;13107;51.304;6.866;2022-11-25T01:45:49;8.20;99.90
25128;DHT22;13107;51.304;6.866;2022-11-25T01:49:59;8.20;99.90
25128;DHT22;13107;51.304;6.866;2022-11-25T01:54:04;8.30;99.90
25128;DHT22;13107;51.304;6.866;2022-11-25T01:58:14;8.30;99.90
25128;DHT22;13107;51.304;6.866;2022-11-25T02:02:17;8.30;99.90
25128;DHT22;13107;51.304;6.866;2022-11-25T02:10:45;8.40;99.90
25128;DHT22;13107;51.304;6.866;2022-11-25T02:14:49;8.40;99.90
25128;DHT22;13107;51.304;6.866;2022-11-25T02:18:52;8.50;99.90
25128;DHT22;13107;51.304;6.866;2022-11-25T02:27:33;8.60;99.90
25128;DHT22;13107;51.304;6.866;2022-11-25T02:31:35;8.60;99.90
25128;DHT22;13107;51.304;6.866;2022-11-25T02:35:38;8.70;99.90
25128;DHT22;13107;51.304;6.866;2022-11-25T02:39:40;8.70;99.90
25128;DHT22;13107;51.304;6.866;2022-11-25T02:43:42;8.60;99.90
25128;DHT22;13107;51.304;6.866;2022-11-25T02:47:44;8.70;99.90
25128;DHT22;13107;51.304;6.866;2022-11-25T02:51:46;8.80;99.90
25128;DHT22;13107;51.304;6.866;2022-11-25T02:55:48;8.80;99.90
25128;DHT22;13107;51.304;6.866;2022-11-25T02:59:49;8.80;99.90
25128;DHT22;13107;51.304;6.866;2022-11-25T03:03:51;8.80;99.90
25128;DHT22;13107;51.304;6.866;2022-11-25T03:07:52;8.80;99.90
25128;DHT22;13107;51.304;6.866;2022-11-25T03:11:54;8.90;99.90
25128;DHT22;13107;51.304;6.866;2022-11-25T03:16:15;8.80;99.90
25128;DHT22;13107;51.304;6.866;2022-11-25T03:20:16;8.80;99.90
25128;DHT22;13107;51.304;6.866;2022-11-25T03:24:18;8.70;99.90
25128;DHT22;13107;51.304;6.866;2022-11-25T03:28:20;8.70;99.90
25128;DHT22;13107;51.304;6.866;2022-11-25T03:32:22;8.70;99.90
25128;DHT22;13107;51.304;6.866;2022-11-25T03:36:23;8.70;99.90
25128;DHT22;13107;51.304;6.866;2022-11-25T03:40:25;8.70;99.90
25128;DHT22;13107;51.304;6.866;2022-11-25T03:44:27;8.80;99.90
25128;DHT22;13107;51.304;6.866;2022-11-25T03:48:28;8.80;99.90
25128;DHT22;13107;51.304;6.866;2022-11-25T03:52:30;8.90;99.90
25128;DHT22;13107;51.304;6.866;2022-11-25T03:56:32;9.00;99.90
25128;DHT22;13107;51.304;6.866;2022-11-25T04:00:34;9.00;99.90
25128;DHT22;13107;51.304;6.866;2022-11-25T04:04:36;9.00;99.90
25128;DHT22;13107;51.304;6.866;2022-11-25T04:08:38;9.10;99.90
25128;DHT22;13107;51.304;6.866;2022-11-25T04:12:40;9.10;99.90
25128;DHT22;13107;51.304;6.866;2022-11-25T04:16:47;9.10;99.90
25128;DHT22;13107;51.304;6.866;2022-11-25T04:20:49;9.00;99.90
25128;DHT22;13107;51.304;6.866;2022-11-25T04:24:51;9.00;99.90
25128;DHT22;13107;51.304;6.866;2022-11-25T04:28:52;8.90;99.90
25128;DHT22;13107;51.304;6.866;2022-11-25T04:32:54;8.90;99.90
25128;DHT22;13107;51.304;6.866;2022-11-25T04:36:56;8.90;99.90
25128;DHT22;13107;51.304;6.866;2022-11-25T04:40:58;8.90;99.90
25128;DHT22;13107;51.304;6.866;2022-11-25T04:45:01;8.90;99.90
25128;DHT22;13107;51.304;6.866;2022-11-25T04:49:23;8.90;99.90
25128;DHT22;13107;51.304;6.866;2022-11-25T04:53:24;8.90;99.90
25128;DHT22;13107;51.304;6.866;2022-11-25T04:57:26;8.80;99.90
25128;DHT22;13107;51.304;6.866;2022-11-25T05:01:28;8.70;99.90
25128;DHT22;13107;51.304;6.866;2022-11-25T05:05:30;8.60;99.90
25128;DHT22;13107;51.304;6.866;2022-11-25T05:09:31;8.70;99.90
25128;DHT22;13107;51.304;6.866;2022-11-25T05:13:33;8.70;99.90
25128;DHT22;13107;51.304;6.866;2022-11-25T05:17:35;8.60;99.90
25128;DHT22;13107;51.304;6.866;2022-11-25T05:21:36;8.60;99.90
25128;DHT22;13107;51.304;6.866;2022-11-25T05:25:38;8.50;99.90
25128;DHT22;13107;51.304;6.866;2022-11-25T05:29:40;8.50;99.90
25128;DHT22;13107;51.304;6.866;2022-11-25T05:33:41;8.40;99.90
25128;DHT22;13107;51.304;6.866;2022-11-25T05:37:43;8.40;99.90
25128;DHT22;13107;51.304;6.866;2022-11-25T05:41:45;8.40;99.90
25128;DHT22;13107;51.304;6.866;2022-11-25T05:45:47;8.40;99.90
25128;DHT22;13107;51.304;6.866;2022-11-25T05:49:48;8.40;99.90
25128;DHT22;13107;51.304;6.866;2022-11-25T05:53:50;8.20;99.90
25128;DHT22;13107;51.304;6.866;2022-11-25T05:57:52;8.10;99.90
25128;DHT22;13107;51.304;6.866;2022-11-25T06:01:54;8.10;99.90
25128;DHT22;13107;51.304;6.866;2022-11-25T06:05:57;8.20;99.90
25128;DHT22;13107;51.304;6.866;2022-11-25T06:09:59;8.10;99.90
25128;DHT22;13107;51.304;6.866;2022-11-25T06:14:04;8.20;99.90
25128;DHT22;13107;51.304;6.866;2022-11-25T06:18:05;8.20;99.90
25128;DHT22;13107;51.304;6.866;2022-11-25T06:22:07;8.10;99.90
25128;DHT22;13107;51.304;6.866;2022-11-25T06:26:19;8.10;99.90
25128;DHT22;13107;51.304;6.866;2022-11-25T06:30:21;8.10;99.90
25128;DHT22;13107;51.304;6.866;2022-11-25T06:34:23;8.00;99.90
25128;DHT22;13107;51.304;6.866;2022-11-25T06:38:25;8.00;99.90
25128;DHT22;13107;51.304;6.866;2022-11-25T06:42:27;8.10;99.90
25128;DHT22;13107;51.304;6.866;2022-11-25T06:46:28;8.10;99.90
25128;DHT22;13107;51.304;6.866;2022-11-25T06:50:30;8.00;99.90
25128;DHT22;13107;51.304;6.866;2022-11-25T06:54:32;8.00;99.90
25128;DHT22;13107;51.304;6.866;2022-11-25T06:58:35;8.10;99.90
25128;DHT22;13107;51.304;6.866;2022-11-25T07:02:37;8.00;99.90
25128;DHT22;13107;51.304;6.866;2022-11-25T07:06:44;8.00;99.90
25128;DHT22;13107;51.304;6.866;2022-11-25T07:10:46;7.90;99.90
25128;DHT22;13107;51.304;6.866;2022-11-25T07:14:49;8.00;99.90
25128;DHT22;13107;51.304;6.866;2022-11-25T07:18:52;8.00;99.90
25128;DHT22;13107;51.304;6.866;2022-11-25T07:22:54;7.90;99.90
25128;DHT22;13107;51.304;6.866;2022-11-25T07:26:55;7.90;99.90
25128;DHT22;13107;51.304;6.866;2022-11-25T07:31:05;7.80;99.90
25128;DHT22;13107;51.304;6.866;2022-11-25T07:35:25;7.90;99.90
25128;DHT22;13107;51.304;6.866;2022-11-25T07:39:26;7.80;99.90
25128;DHT22;13107;51.304;6.866;2022-11-25T07:43:28;7.70;99.90
25128;DHT22;13107;51.304;6.866;2022-11-25T07:47:33;7.60;99.90
25128;DHT22;13107;51.304;6.866;2022-11-25T07:51:42;7.50;99.90
25128;DHT22;13107;51.304;6.866;2022-11-25T07:55:43;7.50;99.90
25128;DHT22;13107;51.304;6.866;2022-11-25T07:59:45;7.60;99.90
25128;DHT22;13107;51.304;6.866;2022-11-25T08:03:48;7.70;99.90
25128;DHT22;13107;51.304;6.866;2022-11-25T08:07:50;7.90;99.90
25128;DHT22;13107;51.304;6.866;2022-11-25T08:11:52;8.00;99.90
25128;DHT22;13107;51.304;6.866;2022-11-25T08:15:54;7.90;99.90
25128;DHT22;13107;51.304;6.866;2022-11-25T08:19:59;8.00;99.90
25128;DHT22;13107;51.304;6.866;2022-11-25T08:24:00;8.10;99.90
25128;DHT22;13107;51.304;6.866;2022-11-25T08:28:03;8.20;99.90
25128;DHT22;13107;51.304;6.866;2022-11-25T08:32:05;8.20;99.90
25128;DHT22;13107;51.304;6.866;2022-11-25T08:36:12;8.20;99.90
25128;DHT22;13107;51.304;6.866;2022-11-25T08:40:15;8.30;99.90
25128;DHT22;13107;51.304;6.866;2022-11-25T08:44:17;8.20;99.90
25128;DHT22;13107;51.304;6.866;2022-11-25T08:48:20;8.20;99.90
25128;DHT22;13107;51.304;6.866;2022-11-25T08:52:22;8.10;99.90
25128;DHT22;13107;51.304;6.866;2022-11-25T08:56:24;8.20;99.90
25128;DHT22;13107;51.304;6.866;2022-11-25T09:00:27;8.30;99.90
25128;DHT22;13107;51.304;6.866;2022-11-25T09:04:28;8.30;99.90
25128;DHT22;13107;51.304;6.866;2022-11-25T09:08:30;8.30;99.90
25128;DHT22;13107;51.304;6.866;2022-11-25T09:12:32;8.20;99.90
25128;DHT22;13107;51.304;6.866;2022-11-25T09:16:34;8.20;99.90
25128;DHT22;13107;51.304;6.866;2022-11-25T09:20:38;8.30;99.90
25128;DHT22;13107;51.304;6.866;2022-11-25T09:24:40;8.30;99.90
25128;DHT22;13107;51.304;6.866;2022-11-25T09:28:43;8.50;99.90
25128;DHT22;13107;51.304;6.866;2022-11-25T09:32:49;8.60;99.90
25128;DHT22;13107;51.304;6.866;2022-11-25T09:36:51;8.80;99.90
25128;DHT22;13107;51.304;6.866;2022-11-25T09:41:02;9.00;99.90
25128;DHT22;13107;51.304;6.866;2022-11-25T09:45:36;9.20;99.90
25128;DHT22;13107;51.304;6.866;2022-11-25T09:54:48;9.50;99.90
25128;DHT22;13107;51.304;6.866;2022-11-25T09:59:41;9.60;99.90
25128;DHT22;13107;51.304;6.866;2022-11-25T10:03:32;9.70;99.90
25128;DHT22;13107;51.304;6.866;2022-11-25T10:07:44;9.80;99.90
25128;DHT22;13107;51.304;6.866;2022-11-25T10:11:53;9.80;99.90
25128;DHT22;13107;51.304;6.866;2022-11-25T10:15:58;9.90;99.90
25128;DHT22;13107;51.304;6.866;2022-11-25T10:20:16;10.00;99.90
25128;DHT22;13107;51.304;6.866;2022-11-25T10:24:18;10.00;99.90
25128;DHT22;13107;51.304;6.866;2022-11-25T10:28:32;10.20;99.90
25128;DHT22;13107;51.304;6.866;2022-11-25T10:32:40;10.30;99.90
25128;DHT22;13107;51.304;6.866;2022-11-25T10:36:43;10.30;99.90
25128;DHT22;13107;51.304;6.866;2022-11-25T10:40:48;10.30;99.90
25128;DHT22;13107;51.304;6.866;2022-11-25T10:44:51;10.40;99.90
25128;DHT22;13107;51.304;6.866;2022-11-25T10:53:21;10.50;99.90
25128;DHT22;13107;51.304;6.866;2022-11-25T10:57:27;10.50;99.90
25128;DHT22;13107;51.304;6.866;2022-11-25T11:01:29;10.50;99.90
25128;DHT22;13107;51.304;6.866;2022-11-25T11:05:30;10.50;99.90
25128;DHT22;13107;51.304;6.866;2022-11-25T11:09:39;10.40;99.90
25128;DHT22;13107;51.304;6.866;2022-11-25T11:13:41;10.40;99.90
25128;DHT22;13107;51.304;6.866;2022-11-25T11:17:43;10.50;99.90
25128;DHT22;13107;51.304;6.866;2022-11-25T11:21:45;10.50;99.90
25128;DHT22;13107;51.304;6.866;2022-11-25T11:26:05;10.70;99.90
25128;DHT22;13107;51.304;6.866;2022-11-25T11:30:15;10.80;99.90
25128;DHT22;13107;51.304;6.866;2022-11-25T11:43:38;11.10;99.90
25128;DHT22;13107;51.304;6.866;2022-11-25T11:56:59;11.00;99.90
25128;DHT22;13107;51.304;6.866;2022-11-25T12:01:24;10.90;99.90
25128;DHT22;13107;51.304;6.866;2022-11-25T12:05:32;10.90;99.90
25128;DHT22;13107;51.304;6.866;2022-11-25T12:09:41;10.80;99.90
25128;DHT22;13107;51.304;6.866;2022-11-25T12:14:35;10.80;99.90
25128;DHT22;13107;51.304;6.866;2022-11-25T12:27:28;10.80;99.90
25128;DHT22;13107;51.304;6.866;2022-11-25T12:31:49;11.00;99.90
25128;DHT22;13107;51.304;6.866;2022-11-25T12:36:09;11.20;99.90
25128;DHT22;13107;51.304;6.866;2022-11-25T12:44:24;11.30;99.90
25128;DHT22;13107;51.304;6.866;2022-11-25T12:48:26;11.40;99.90
25128;DHT22;13107;51.304;6.866;2022-11-25T12:52:56;11.30;99.90
25128;DHT22;13107;51.304;6.866;2022-11-25T13:14:20;11.70;99.90
25128;DHT22;13107;51.304;6.866;2022-11-25T13:18:27;11.60;99.90
25128;DHT22;13107;51.304;6.866;2022-11-25T13:22:29;11.80;99.90
25128;DHT22;13107;51.304;6.866;2022-11-25T13:26:34;11.90;99.90
25128;DHT22;13107;51.304;6.866;2022-11-25T13:30:39;11.90;99.90
25128;DHT22;13107;51.304;6.866;2022-11-25T13:34:40;11.90;99.90
25128;DHT22;13107;51.304;6.866;2022-11-25T13:42:51;11.70;99.90
25128;DHT22;13107;51.304;6.866;2022-11-25T13:46:54;11.60;99.90
25128;DHT22;13107;51.304;6.866;2022-11-25T13:51:16;11.50;99.90
25128;DHT22;13107;51.304;6.866;2022-11-25T13:55:22;11.80;99.90
25128;DHT22;13107;51.304;6.866;2022-11-25T14:03:44;12.10;99.90
25128;DHT22;13107;51.304;6.866;2022-11-25T14:08:19;12.00;99.90
25128;DHT22;13107;51.304;6.866;2022-11-25T14:25:54;11.50;99.90
25128;DHT22;13107;51.304;6.866;2022-11-25T14:30:03;11.40;99.90
25128;DHT22;13107;51.304;6.866;2022-11-25T14:34:22;11.30;99.90
25128;DHT22;13107;51.304;6.866;2022-11-25T14:38:31;11.20;99.90
25128;DHT22;13107;51.304;6.866;2022-11-25T14:42:36;11.10;99.90
25128;DHT22;13107;51.304;6.866;2022-11-25T14:46:56;11.10;99.90
25128;DHT22;13107;51.304;6.866;2022-11-25T14:51:06;10.90;99.90
25128;DHT22;13107;51.304;6.866;2022-11-25T14:55:09;10.80;99.90
25128;DHT22;13107;51.304;6.866;2022-11-25T14:59:11;10.90;99.90
25128;DHT22;13107;51.304;6.866;2022-11-25T15:03:17;10.80;99.90
25128;DHT22;13107;51.304;6.866;2022-11-25T15:07:21;10.70;99.90
25128;DHT22;13107;51.304;6.866;2022-11-25T15:11:32;10.60;99.90
25128;DHT22;13107;51.304;6.866;2022-11-25T15:15:35;10.70;99.90
25128;DHT22;13107;51.304;6.866;2022-11-25T15:19:36;10.70;99.90
25128;DHT22;13107;51.304;6.866;2022-11-25T15:23:39;10.70;99.90
25128;DHT22;13107;51.304;6.866;2022-11-25T15:27:47;10.70;99.90
25128;DHT22;13107;51.304;6.866;2022-11-25T15:31:50;10.70;99.90
25128;DHT22;13107;51.304;6.866;2022-11-25T15:35:54;10.60;99.90
25128;DHT22;13107;51.304;6.866;2022-11-25T15:44:45;10.40;99.90
25128;DHT22;13107;51.304;6.866;2022-11-25T15:48:50;10.20;99.90
25128;DHT22;13107;51.304;6.866;2022-11-25T15:52:55;10.20;99.90
25128;DHT22;13107;51.304;6.866;2022-11-25T15:57:02;10.30;99.90
25128;DHT22;13107;51.304;6.866;2022-11-25T16:05:28;10.20;99.90
25128;DHT22;13107;51.304;6.866;2022-11-25T16:09:32;10.20;99.90
25128;DHT22;13107;51.304;6.866;2022-11-25T16:13:35;10.30;99.90
25128;DHT22;13107;51.304;6.866;2022-11-25T16:17:37;10.40;99.90
25128;DHT22;13107;51.304;6.866;2022-11-25T16:21:45;10.30;99.90
25128;DHT22;13107;51.304;6.866;2022-11-25T16:25:55;10.30;99.90
25128;DHT22;13107;51.304;6.866;2022-11-25T16:34:16;10.20;99.90
25128;DHT22;13107;51.304;6.866;2022-11-25T16:38:18;10.00;99.90
25128;DHT22;13107;51.304;6.866;2022-11-25T16:42:20;10.20;99.90
25128;DHT22;13107;51.304;6.866;2022-11-25T16:46:22;10.10;99.90
25128;DHT22;13107;51.304;6.866;2022-11-25T16:50:24;10.20;99.90
25128;DHT22;13107;51.304;6.866;2022-11-25T16:54:26;10.20;99.90
25128;DHT22;13107;51.304;6.866;2022-11-25T16:58:27;10.30;99.90
25128;DHT22;13107;51.304;6.866;2022-11-25T17:02:29;10.20;99.90
25128;DHT22;13107;51.304;6.866;2022-11-25T17:06:31;10.30;99.90
25128;DHT22;13107;51.304;6.866;2022-11-25T17:10:32;10.20;99.90
25128;DHT22;13107;51.304;6.866;2022-11-25T17:14:34;10.20;99.90
25128;DHT22;13107;51.304;6.866;2022-11-25T17:18:38;10.30;99.90
25128;DHT22;13107;51.304;6.866;2022-11-25T17:22:40;10.30;99.90
25128;DHT22;13107;51.304;6.866;2022-11-25T17:26:43;10.30;99.90
25128;DHT22;13107;51.304;6.866;2022-11-25T17:30:46;10.40;99.90
25128;DHT22;13107;51.304;6.866;2022-11-25T17:34:48;10.40;99.90
25128;DHT22;13107;51.304;6.866;2022-11-25T17:38:50;10.30;99.90
25128;DHT22;13107;51.304;6.866;2022-11-25T17:42:52;10.20;99.90
25128;DHT22;13107;51.304;6.866;2022-11-25T17:46:55;10.20;99.90
25128;DHT22;13107;51.304;6.866;2022-11-25T17:50:57;10.20;99.90
25128;DHT22;13107;51.304;6.866;2022-11-25T17:55:01;10.20;99.90
25128;DHT22;13107;51.304;6.866;2022-11-25T17:59:08;10.10;99.90
25128;DHT22;13107;51.304;6.866;2022-11-25T18:03:11;10.00;99.90
25128;DHT22;13107;51.304;6.866;2022-11-25T18:07:13;9.90;99.90
25128;DHT22;13107;51.304;6.866;2022-11-25T18:11:17;9.90;99.90
25128;DHT22;13107;51.304;6.866;2022-11-25T18:15:22;9.80;99.90
25128;DHT22;13107;51.304;6.866;2022-11-25T18:19:24;9.80;99.90
25128;DHT22;13107;51.304;6.866;2022-11-25T18:23:26;9.80;99.90
25128;DHT22;13107;51.304;6.866;2022-11-25T18:27:28;9.70;99.90
25128;DHT22;13107;51.304;6.866;2022-11-25T18:31:29;9.60;99.90
25128;DHT22;13107;51.304;6.866;2022-11-25T18:35:32;9.50;99.90
25128;DHT22;13107;51.304;6.866;2022-11-25T18:39:37;9.30;99.90
25128;DHT22;13107;51.304;6.866;2022-11-25T18:43:39;9.10;99.90
25128;DHT22;13107;51.304;6.866;2022-11-25T18:47:41;9.00;99.90
25128;DHT22;13107;51.304;6.866;2022-11-25T18:51:43;8.80;99.90
25128;DHT22;13107;51.304;6.866;2022-11-25T18:55:46;8.70;99.90
25128;DHT22;13107;51.304;6.866;2022-11-25T18:59:48;8.60;99.90
25128;DHT22;13107;51.304;6.866;2022-11-25T19:04:14;8.40;99.90
25128;DHT22;13107;51.304;6.866;2022-11-25T19:08:16;8.30;99.90
25128;DHT22;13107;51.304;6.866;2022-11-25T19:12:19;8.20;99.90
25128;DHT22;13107;51.304;6.866;2022-11-25T19:16:21;8.20;99.90
25128;DHT22;13107;51.304;6.866;2022-11-25T19:20:24;8.10;99.90
25128;DHT22;13107;51.304;6.866;2022-11-25T19:24:26;8.00;99.90
25128;DHT22;13107;51.304;6.866;2022-11-25T19:28:29;8.00;99.90
25128;DHT22;13107;51.304;6.866;2022-11-25T19:32:31;8.00;99.90
25128;DHT22;13107;51.304;6.866;2022-11-25T19:36:33;8.00;99.90
25128;DHT22;13107;51.304;6.866;2022-11-25T19:40:38;8.00;99.90
25128;DHT22;13107;51.304;6.866;2022-11-25T19:44:45;8.00;99.90
25128;DHT22;13107;51.304;6.866;2022-11-25T19:48:46;8.00;99.90
25128;DHT22;13107;51.304;6.866;2022-11-25T19:52:48;7.90;99.90
25128;DHT22;13107;51.304;6.866;2022-11-25T19:56:50;7.90;99.90
25128;DHT22;13107;51.304;6.866;2022-11-25T20:00:52;7.80;99.90
25128;DHT22;13107;51.304;6.866;2022-11-25T20:04:55;7.90;99.90
25128;DHT22;13107;51.304;6.866;2022-11-25T20:08:58;8.00;99.90
25128;DHT22;13107;51.304;6.866;2022-11-25T20:13:08;8.00;99.90
25128;DHT22;13107;51.304;6.866;2022-11-25T20:17:13;7.90;99.90
25128;DHT22;13107;51.304;6.866;2022-11-25T20:25:29;7.60;99.90
25128;DHT22;13107;51.304;6.866;2022-11-25T20:29:31;7.60;99.90
25128;DHT22;13107;51.304;6.866;2022-11-25T20:33:33;7.60;99.90
25128;DHT22;13107;51.304;6.866;2022-11-25T20:37:34;7.70;99.90
25128;DHT22;13107;51.304;6.866;2022-11-25T20:41:51;7.70;99.90
25128;DHT22;13107;51.304;6.866;2022-11-25T20:45:53;7.60;99.90
25128;DHT22;13107;51.304;6.866;2022-11-25T20:49:55;7.60;99.90
25128;DHT22;13107;51.304;6.866;2022-11-25T20:53:58;7.50;99.90
25128;DHT22;13107;51.304;6.866;2022-11-25T20:58:19;7.50;99.90
25128;DHT22;13107;51.304;6.866;2022-11-25T21:02:21;7.50;99.90
25128;DHT22;13107;51.304;6.866;2022-11-25T21:06:28;7.50;99.90
25128;DHT22;13107;51.304;6.866;2022-11-25T21:10:30;7.30;99.90
25128;DHT22;13107;51.304;6.866;2022-11-25T21:14:35;7.10;99.90
25128;DHT22;13107;51.304;6.866;2022-11-25T21:18:37;7.00;99.90
25128;DHT22;13107;51.304;6.866;2022-11-25T21:22:41;6.90;99.90
25128;DHT22;13107;51.304;6.866;2022-11-25T21:26:44;6.70;99.90
25128;DHT22;13107;51.304;6.866;2022-11-25T21:30:46;6.60;99.90
25128;DHT22;13107;51.304;6.866;2022-11-25T21:34:48;6.50;99.90
25128;DHT22;13107;51.304;6.866;2022-11-25T21:38:52;6.40;99.90
25128;DHT22;13107;51.304;6.866;2022-11-25T21:42:56;6.20;99.90
25128;DHT22;13107;51.304;6.866;2022-11-25T21:46:58;6.10;99.90
25128;DHT22;13107;51.304;6.866;2022-11-25T21:50:59;6.00;99.90
25128;DHT22;13107;51.304;6.866;2022-11-25T21:55:01;6.00;99.90
25128;DHT22;13107;51.304;6.866;2022-11-25T21:59:04;5.90;99.90
25128;DHT22;13107;51.304;6.866;2022-11-25T22:03:14;5.80;99.90
25128;DHT22;13107;51.304;6.866;2022-11-25T22:07:16;5.70;99.90
25128;DHT22;13107;51.304;6.866;2022-11-25T22:11:20;5.50;99.90
25128;DHT22;13107;51.304;6.866;2022-11-25T22:15:22;5.40;99.90
25128;DHT22;13107;51.304;6.866;2022-11-25T22:19:26;5.30;99.90
25128;DHT22;13107;51.304;6.866;2022-11-25T22:23:28;5.20;99.90
25128;DHT22;13107;51.304;6.866;2022-11-25T22:27:32;5.20;99.90
25128;DHT22;13107;51.304;6.866;2022-11-25T22:31:37;5.00;99.90
25128;DHT22;13107;51.304;6.866;2022-11-25T22:35:38;4.90;99.90
25128;DHT22;13107;51.304;6.866;2022-11-25T22:39:40;4.70;99.90
25128;DHT22;13107;51.304;6.866;2022-11-25T22:43:48;4.70;99.90
25128;DHT22;13107;51.304;6.866;2022-11-25T22:47:51;4.70;99.90
25128;DHT22;13107;51.304;6.866;2022-11-25T22:51:54;4.60;99.90
25128;DHT22;13107;51.304;6.866;2022-11-25T22:55:56;4.50;99.90
25128;DHT22;13107;51.304;6.866;2022-11-25T22:59:58;4.40;99.90
25128;DHT22;13107;51.304;6.866;2022-11-25T23:04:00;4.30;99.90
25128;DHT22;13107;51.304;6.866;2022-11-25T23:08:15;4.40;99.90
25128;DHT22;13107;51.304;6.866;2022-11-25T23:12:18;4.50;99.90
25128;DHT22;13107;51.304;6.866;2022-11-25T23:16:19;4.50;99.90
25128;DHT22;13107;51.304;6.866;2022-11-25T23:20:35;4.60;99.90
25128;DHT22;13107;51.304;6.866;2022-11-25T23:24:42;4.60;99.90
25128;DHT22;13107;51.304;6.866;2022-11-25T23:28:44;4.60;99.90
25128;DHT22;13107;51.304;6.866;2022-11-25T23:32:48;4.60;99.90
25128;DHT22;13107;51.304;6.866;2022-11-25T23:36:50;4.70;99.90
25128;DHT22;13107;51.304;6.866;2022-11-25T23:40:52;4.70;99.90
25128;DHT22;13107;51.304;6.866;2022-11-25T23:44:54;4.70;99.90
25128;DHT22;13107;51.304;6.866;2022-11-25T23:48:57;4.70;99.90
25128;DHT22;13107;51.304;6.866;2022-11-25T23:53:05;4.70;99.90
25128;DHT22;13107;51.304;6.866;2022-11-25T23:57:22;4.60;99.90
